Time;durP1;ratioP1;P1;durP2;ratioP2;P2;SDS_P1;SDS_P2;PMS_P1;PMS_P2;Temp;Humidity;BMP_temperature;BMP_pressure;BME280_temperature;BME280_humidity;BME280_pressure;Samples;Min_cycle;Max_cycle;Signal;HPM_P1;HPM_P2
2022/10/07 00:01:48;;;;;;;0.20;0.20;;;15.20;91.80;;;;;;4978061;28;20035;-75
2022/10/07 00:07:36;;;;;;;0.60;0.30;;;15.20;91.70;;;;;;4978222;28;20313;-75
2022/10/07 00:10:20;;;;;;;0.00;0.00;;;15.10;92.50;;;;;;4978162;28;20040;-75
2022/10/07 00:12:55;;;;;;;0.30;0.10;;;15.10;92.10;;;;;;4977960;28;20023;-75
2022/10/07 00:19:01;;;;;;;0.00;0.00;;;15.10;93.80;;;;;;4978153;28;20033;-75
2022/10/07 00:21:37;;;;;;;0.13;0.13;;;15.10;93.50;;;;;;4977797;28;20165;-75
2022/10/07 00:24:14;;;;;;;0.00;0.00;;;15.10;94.50;;;;;;4960556;28;20039;-75
2022/10/07 00:26:40;;;;;;;0.00;0.00;;;15.10;95.10;;;;;;4977728;28;20038;-75
2022/10/07 00:29:18;;;;;;;0.00;0.00;;;15.00;94.50;;;;;;4977808;28;20037;-75
2022/10/07 00:31:53;;;;;;;0.00;0.00;;;15.10;93.30;;;;;;4960690;28;20035;-75
2022/10/07 00:37:41;;;;;;;0.00;0.00;;;14.90;93.70;;;;;;4978116;28;20339;-75
2022/10/07 00:40:16;;;;;;;0.00;0.00;;;14.90;93.70;;;;;;4960406;28;20342;-75
2022/10/07 00:42:51;;;;;;;0.00;0.00;;;14.90;93.80;;;;;;4977465;28;20398;-75
2022/10/07 00:48:48;;;;;;;0.00;0.00;;;14.90;93.40;;;;;;4977899;28;20352;-75
2022/10/07 00:51:24;;;;;;;0.00;0.00;;;14.80;94.50;;;;;;4960323;28;20031;-75
2022/10/07 00:54:01;;;;;;;0.00;0.00;;;14.80;94.70;;;;;;4977775;28;20476;-75
2022/10/07 00:57:16;;;;;;;0.13;0.13;;;14.70;94.20;;;;;;4960447;28;20038;-75
2022/10/07 00:59:54;;;;;;;0.10;0.00;;;14.70;93.30;;;;;;4960194;28;20061;-75
2022/10/07 01:02:29;;;;;;;0.00;0.00;;;14.80;92.70;;;;;;4977342;28;20356;-75
2022/10/07 01:05:08;;;;;;;0.28;0.28;;;14.80;93.00;;;;;;4960365;28;20169;-75
2022/10/07 01:07:34;;;;;;;0.00;0.00;;;14.80;92.60;;;;;;4977306;28;20085;-75
2022/10/07 01:10:17;;;;;;;0.00;0.00;;;14.80;91.90;;;;;;4977346;28;20030;-76
2022/10/07 01:13:04;;;;;;;0.13;0.13;;;14.80;92.30;;;;;;4979451;28;20027;-75
2022/10/07 01:19:48;;;;;;;0.00;0.00;;;14.90;92.30;;;;;;4981305;28;20049;-75
2022/10/07 01:22:48;;;;;;;0.80;0.17;;;14.90;92.50;;;;;;4978452;28;20134;-75
2022/10/07 01:28:52;;;;;;;0.10;0.10;;;14.80;93.00;;;;;;4981503;28;20178;-75
2022/10/07 01:31:45;;;;;;;0.00;0.00;;;14.80;93.60;;;;;;4980905;28;20442;-75
2022/10/07 01:37:47;;;;;;;0.00;0.00;;;14.90;92.40;;;;;;4981216;28;20427;-75
2022/10/07 01:40:43;;;;;;;0.00;0.00;;;14.80;92.80;;;;;;4980480;28;20043;-75
2022/10/07 01:43:21;;;;;;;0.20;0.20;;;14.80;92.60;;;;;;4980585;28;20427;-75
2022/10/07 01:49:17;;;;;;;0.00;0.00;;;14.80;94.80;;;;;;4980955;28;20050;-76
2022/10/07 01:52:36;;;;;;;0.00;0.00;;;14.80;93.50;;;;;;4963304;28;20451;-76
2022/10/07 01:59:09;;;;;;;0.38;0.38;;;14.80;90.60;;;;;;4915793;28;20371;-76
2022/10/07 02:02:08;;;;;;;0.00;0.00;;;14.80;90.60;;;;;;4980368;28;20331;-76
2022/10/07 02:08:38;;;;;;;0.55;0.10;;;14.90;91.20;;;;;;4980591;28;20102;-75
2022/10/07 02:11:34;;;;;;;0.00;0.00;;;14.90;91.80;;;;;;4962971;28;20027;-75
2022/10/07 02:14:44;;;;;;;1.35;0.88;;;14.90;92.70;;;;;;4980165;28;20327;-75
2022/10/07 02:17:19;;;;;;;0.00;0.00;;;14.80;91.70;;;;;;4976469;28;20035;-75
2022/10/07 02:20:09;;;;;;;0.00;0.00;;;14.80;91.40;;;;;;4980076;28;20356;-75
2022/10/07 02:22:45;;;;;;;0.00;0.00;;;14.80;91.60;;;;;;4979743;28;20039;-75
2022/10/07 02:28:49;;;;;;;0.00;0.00;;;14.90;90.40;;;;;;4980228;28;20408;-75
2022/10/07 02:31:29;;;;;;;0.00;0.00;;;14.90;90.80;;;;;;4979725;28;20426;-75
2022/10/07 02:34:09;;;;;;;0.20;0.15;;;14.90;90.40;;;;;;4979764;28;20082;-76
2022/10/07 02:36:45;;;;;;;2.53;1.55;;;14.90;90.60;;;;;;4962563;28;20175;-76
2022/10/07 02:39:20;;;;;;;0.10;0.10;;;14.90;90.60;;;;;;4979701;28;20088;-76
2022/10/07 02:42:10;;;;;;;0.00;0.00;;;14.90;89.50;;;;;;4979572;28;20046;-76
2022/10/07 02:48:40;;;;;;;1.35;0.90;;;14.90;89.90;;;;;;4979802;28;20057;-75
2022/10/07 02:51:19;;;;;;;0.10;0.10;;;14.80;89.70;;;;;;4979431;28;20035;-75
2022/10/07 02:53:56;;;;;;;0.00;0.00;;;14.90;91.00;;;;;;4979395;28;20058;-75
2022/10/07 02:56:24;;;;;;;0.00;0.00;;;14.90;90.10;;;;;;4962020;28;20134;-75
2022/10/07 02:59:02;;;;;;;0.00;0.00;;;14.90;89.70;;;;;;4979367;28;20340;-75
2022/10/07 03:01:44;;;;;;;0.00;0.00;;;14.90;89.80;;;;;;4962157;28;20094;-75
2022/10/07 03:04:31;;;;;;;0.10;0.10;;;14.90;90.10;;;;;;4963551;28;20099;-75
2022/10/07 03:06:57;;;;;;;0.20;0.20;;;14.90;90.50;;;;;;4961963;28;20027;-75
2022/10/07 03:09:40;;;;;;;0.00;0.00;;;14.90;90.10;;;;;;4979213;28;20019;-75
2022/10/07 03:12:14;;;;;;;0.45;0.45;;;15.00;90.30;;;;;;4979031;28;20062;-75
2022/10/07 03:18:27;;;;;;;0.13;0.13;;;15.00;90.20;;;;;;4979369;28;20077;-75
2022/10/07 03:21:03;;;;;;;0.00;0.00;;;15.00;90.00;;;;;;4978800;28;20043;-75
2022/10/07 03:23:38;;;;;;;0.52;0.52;;;14.90;90.10;;;;;;4961692;28;20035;-75
2022/10/07 03:29:35;;;;;;;0.00;0.00;;;15.00;91.20;;;;;;4978718;28;20053;-75
2022/10/07 03:32:10;;;;;;;0.10;0.10;;;15.10;91.20;;;;;;4961443;28;20432;-75
2022/10/07 03:38:07;;;;;;;0.10;0.10;;;15.00;87.80;;;;;;4978883;28;20446;-75
2022/10/07 03:40:43;;;;;;;0.00;0.00;;;15.30;86.00;;;;;;4961246;28;20048;-75
2022/10/07 03:43:18;;;;;;;0.20;0.20;;;15.50;85.60;;;;;;4961350;28;20034;-75
2022/10/07 03:49:15;;;;;;;2.08;1.15;;;15.80;84.80;;;;;;4978403;28;20254;-75
2022/10/07 03:51:50;;;;;;;0.05;0.05;;;15.80;83.70;;;;;;4978293;28;20034;-75
2022/10/07 04:00:31;;;;;;;0.00;0.00;;;15.90;83.70;;;;;;4963690;28;20101;-75
2022/10/07 04:03:06;;;;;;;0.00;0.00;;;15.80;84.80;;;;;;4977997;28;20019;-75
2022/10/07 04:08:54;;;;;;;0.00;0.00;;;15.50;86.60;;;;;;4978227;28;20096;-75
2022/10/07 04:11:40;;;;;;;0.05;0.05;;;15.40;86.30;;;;;;4978015;28;20408;-75
2022/10/07 04:17:28;;;;;;;0.00;0.00;;;15.20;86.40;;;;;;4978461;28;20046;-75
2022/10/07 04:20:03;;;;;;;0.00;0.00;;;15.30;87.40;;;;;;4977805;28;20034;-75
2022/10/07 04:22:39;;;;;;;0.03;0.03;;;15.20;86.70;;;;;;4977773;28;20063;-75
2022/10/07 04:28:35;;;;;;;0.00;0.00;;;15.60;84.20;;;;;;4978151;28;20081;-75
2022/10/07 04:31:13;;;;;;;0.00;0.00;;;15.80;84.20;;;;;;4977705;28;20051;-75
2022/10/07 04:33:48;;;;;;;2.08;1.27;;;15.90;85.10;;;;;;4977928;28;20090;-75
2022/10/07 04:39:45;;;;;;;0.00;0.00;;;16.10;82.90;;;;;;4977753;28;20058;-75
2022/10/07 04:48:42;;;;;;;0.00;0.00;;;16.30;81.60;;;;;;4977985;28;20038;-75
2022/10/07 04:51:17;;;;;;;0.00;0.00;;;16.30;81.10;;;;;;4960452;28;20126;-75
2022/10/07 04:53:52;;;;;;;0.00;0.00;;;16.40;81.30;;;;;;4977527;28;20041;-75
2022/10/07 04:59:52;;;;;;;0.20;0.20;;;16.50;81.00;;;;;;4977579;28;20054;-75
2022/10/07 05:02:27;;;;;;;0.22;0.22;;;16.50;80.20;;;;;;4960306;28;20033;-75
2022/10/07 05:08:27;;;;;;;0.00;0.00;;;16.50;79.80;;;;;;4977775;28;20057;-75
2022/10/07 05:11:05;;;;;;;0.00;0.00;;;16.50;79.70;;;;;;4960377;28;20031;-75
2022/10/07 05:13:40;;;;;;;0.00;0.00;;;16.50;79.80;;;;;;4977223;28;20027;-75
2022/10/07 05:19:37;;;;;;;0.10;0.10;;;16.50;79.80;;;;;;4977426;28;20094;-76
2022/10/07 05:22:15;;;;;;;0.60;0.60;;;16.50;79.40;;;;;;4977219;28;20042;-76
2022/10/07 05:28:15;;;;;;;3.25;0.98;;;16.50;78.80;;;;;;4977372;28;20093;-75
2022/10/07 05:31:00;;;;;;;0.00;0.00;;;16.50;79.10;;;;;;4977038;28;20078;-75
2022/10/07 05:33:36;;;;;;;0.00;0.00;;;16.50;79.10;;;;;;4977191;28;20038;-75
2022/10/07 05:39:13;;;;;;;0.00;0.00;;;16.50;79.00;;;;;;4977069;28;19921;-75
2022/10/07 05:41:48;;;;;;;0.00;0.00;;;16.60;78.70;;;;;;4960021;28;20035;-75
2022/10/07 05:44:24;;;;;;;0.00;0.00;;;16.70;78.30;;;;;;4976991;28;20383;-75
2022/10/07 05:46:50;;;;;;;0.00;0.00;;;16.70;78.20;;;;;;4959918;28;20026;-75
2022/10/07 05:49:26;;;;;;;0.00;0.00;;;16.70;78.00;;;;;;4959900;28;20025;-75
2022/10/07 05:52:02;;;;;;;0.00;0.00;;;16.70;78.30;;;;;;4977011;28;20035;-75
2022/10/07 05:57:31;;;;;;;0.00;0.00;;;16.70;78.90;;;;;;4977345;28;20321;-76
2022/10/07 06:00:07;;;;;;;0.15;0.15;;;16.80;78.30;;;;;;4980256;28;20097;-75
2022/10/07 06:02:41;;;;;;;;;;;16.80;78.70;;;;;;4980804;28;20063;-75
2022/10/07 06:08:29;;;;;;;0.00;0.00;;;16.90;79.80;;;;;;4980633;28;20097;-75
2022/10/07 06:13:58;;;;;;;0.00;0.00;;;16.90;81.30;;;;;;4980436;28;20045;-75
2022/10/07 06:17:20;;;;;;;0.00;0.00;;;17.00;81.00;;;;;;4980324;28;20058;-75
2022/10/07 06:19:54;;;;;;;0.00;0.00;;;17.10;81.10;;;;;;4980002;28;20031;-75
2022/10/07 06:22:29;;;;;;;0.00;0.00;;;17.20;81.10;;;;;;4979915;28;20046;-75
2022/10/07 06:28:17;;;;;;;0.00;0.00;;;17.30;81.10;;;;;;4980049;28;20416;-75
2022/10/07 06:30:52;;;;;;;0.00;0.00;;;17.40;82.20;;;;;;4962763;28;20042;-76
2022/10/07 06:33:27;;;;;;;0.20;0.10;;;17.40;80.70;;;;;;4946696;28;20305;-76
2022/10/07 06:39:24;;;;;;;0.00;0.00;;;17.50;82.80;;;;;;4979668;28;20328;-75
2022/10/07 06:41:59;;;;;;;0.00;0.00;;;17.60;81.40;;;;;;4962502;28;20031;-75
2022/10/07 06:48:34;;;;;;;0.00;0.00;;;17.60;80.80;;;;;;4979685;28;20033;-75
2022/10/07 06:51:13;;;;;;;0.00;0.00;;;17.80;79.00;;;;;;4979412;28;20050;-75
2022/10/07 06:53:53;;;;;;;0.55;0.43;;;17.80;80.00;;;;;;4962273;28;20030;-75
2022/10/07 06:59:50;;;;;;;0.10;0.10;;;17.80;80.20;;;;;;4979422;28;20070;-75
2022/10/07 07:02:26;;;;;;;0.00;0.00;;;17.80;79.10;;;;;;4946352;28;20082;-75
2022/10/07 07:08:30;;;;;;;0.00;0.00;;;17.90;78.80;;;;;;4979619;28;20052;-75
2022/10/07 07:11:34;;;;;;;0.00;0.00;;;18.00;79.20;;;;;;4978324;28;20078;-75
2022/10/07 07:14:06;;;;;;;0.08;0.08;;;18.10;79.70;;;;;;4938703;29;20332;-75
2022/10/07 07:16:32;;;;;;;0.00;0.00;;;18.10;78.80;;;;;;4922847;29;20055;-75
2022/10/07 07:19:10;;;;;;;0.47;0.30;;;18.10;79.00;;;;;;4906945;29;20051;-75
2022/10/07 07:21:45;;;;;;;0.45;0.38;;;18.10;78.50;;;;;;4922681;29;20455;-75
2022/10/07 07:27:32;;;;;;;0.00;0.00;;;18.30;79.40;;;;;;4938941;29;20039;-75
2022/10/07 07:30:22;;;;;;;0.15;0.15;;;18.40;78.60;;;;;;4922525;29;20429;-75
2022/10/07 07:32:57;;;;;;;10.68;1.10;;;18.40;78.00;;;;;;4938333;29;20035;-75
2022/10/07 07:39:07;;;;;;;0.00;0.00;;;18.40;80.50;;;;;;4938504;28;20067;-75
2022/10/07 07:41:45;;;;;;;0.00;0.00;;;18.50;78.90;;;;;;4938263;29;20119;-75
2022/10/07 07:47:43;;;;;;;0.88;0.80;;;18.50;78.60;;;;;;4978744;28;20097;-75
2022/10/07 07:50:21;;;;;;;0.00;0.00;;;18.50;77.80;;;;;;4978460;28;20110;-75
2022/10/07 07:52:56;;;;;;;0.00;0.00;;;18.50;78.50;;;;;;4961856;28;20018;-75
2022/10/07 07:58:44;;;;;;;0.10;0.10;;;18.60;78.70;;;;;;4978662;28;20335;-75
2022/10/07 08:01:19;;;;;;;0.05;0.03;;;18.70;77.70;;;;;;4961073;28;20262;-75
2022/10/07 08:03:54;;;;;;;0.00;0.00;;;18.80;78.70;;;;;;4978155;28;20057;-75
2022/10/07 08:13:23;;;;;;;0.15;0.15;;;19.40;77.30;;;;;;4978333;28;20062;-75
2022/10/07 08:19:20;;;;;;;0.10;0.10;;;21.40;70.20;;;;;;4977798;28;20281;-76
2022/10/07 08:21:59;;;;;;;0.00;0.00;;;22.90;71.30;;;;;;4960605;28;20039;-76
2022/10/07 08:27:47;;;;;;;0.00;0.00;;;24.90;67.60;;;;;;4978289;28;20435;-74
2022/10/07 08:30:22;;;;;;;0.00;0.00;;;25.70;63.10;;;;;;4977737;28;20032;-74
2022/10/07 08:32:57;;;;;;;2.42;0.60;;;26.20;64.20;;;;;;4977792;28;20113;-74
2022/10/07 08:38:45;;;;;;;0.10;0.10;;;26.00;62.70;;;;;;4977762;28;20349;-74
2022/10/07 08:41:31;;;;;;;0.17;0.17;;;25.50;64.60;;;;;;4978057;28;20434;-74
2022/10/07 08:44:47;;;;;;;1.75;0.20;;;25.30;65.20;;;;;;4960352;28;20106;-74
2022/10/07 08:47:25;;;;;;;1.20;0.30;;;25.70;64.20;;;;;;4970315;28;20050;-74
2022/10/07 08:50:11;;;;;;;0.25;0.25;;;26.00;60.70;;;;;;4960452;28;20105;-74
2022/10/07 08:53:23;;;;;;;;;;;26.50;60.50;;;;;;4977970;28;20486;-74
2022/10/07 08:59:32;;;;;;;0.00;0.00;;;27.00;60.30;;;;;;4937413;29;20062;-74
2022/10/07 09:02:58;;;;;;;0.08;0.08;;;27.00;57.90;;;;;;4937327;29;20433;-74
2022/10/07 09:08:51;;;;;;;0.00;0.00;;;27.40;60.50;;;;;;4937234;29;20695;-74
2022/10/07 09:11:31;;;;;;;0.00;0.00;;;27.60;58.00;;;;;;4921093;29;20503;-74
2022/10/07 09:14:17;;;;;;;0.10;0.10;;;27.90;58.50;;;;;;4937124;29;20083;-74
2022/10/07 09:16:45;;;;;;;0.00;0.00;;;27.80;57.60;;;;;;4921224;29;20068;-74
2022/10/07 09:19:51;;;;;;;0.00;0.00;;;27.90;59.70;;;;;;4936970;29;20056;-74
2022/10/07 09:22:56;;;;;;;0.10;0.10;;;28.10;59.00;;;;;;4926175;29;20055;-74
2022/10/07 09:28:52;;;;;;;0.10;0.10;;;28.00;57.80;;;;;;4937041;29;20038;-74
2022/10/07 09:38:08;;;;;;;0.00;0.00;;;27.80;58.50;;;;;;4981155;28;20042;-74
2022/10/07 09:41:14;;;;;;;0.43;0.43;;;28.10;60.00;;;;;;4980659;28;20455;-74
2022/10/07 09:44:26;;;;;;;15.00;0.52;;;28.30;58.60;;;;;;4980735;28;20038;-74
2022/10/07 09:47:22;;;;;;;0.10;0.05;;;28.10;57.40;;;;;;4976948;28;20035;-74
2022/10/07 09:49:58;;;;;;;0.03;0.03;;;28.20;58.10;;;;;;4980636;28;20320;-74
2022/10/07 09:55:48;;;;;;;0.32;0.30;;;27.70;59.50;;;;;;4980578;28;20046;-75
2022/10/07 09:58:31;;;;;;;0.00;0.00;;;27.70;59.70;;;;;;4980501;28;20117;-74
2022/10/07 10:01:10;;;;;;;2.45;0.88;;;27.80;60.40;;;;;;4963433;28;20105;-74
2022/10/07 10:03:45;;;;;;;0.35;0.20;;;28.00;61.30;;;;;;4980283;28;20023;-74
2022/10/07 10:06:11;;;;;;;1.33;0.17;;;28.10;59.00;;;;;;4963119;28;20368;-74
2022/10/07 10:08:54;;;;;;;0.50;0.40;;;28.20;59.80;;;;;;4963225;28;20031;-74
2022/10/07 10:11:32;;;;;;;0.10;0.00;;;28.00;60.60;;;;;;4963169;28;20042;-74
2022/10/07 10:18:11;;;;;;;0.00;0.00;;;28.20;61.20;;;;;;4919667;28;20137;-74
2022/10/07 10:20:45;;;;;;;0.25;0.25;;;28.10;60.50;;;;;;4980010;28;20424;-74
2022/10/07 10:23:52;;;;;;;0.10;0.10;;;28.00;60.50;;;;;;4980220;28;20090;-74
2022/10/07 10:26:58;;;;;;;0.05;0.05;;;28.00;61.80;;;;;;4979802;28;20027;-74
2022/10/07 10:30:00;;;;;;;0.13;0.03;;;28.00;59.00;;;;;;4962809;28;20026;-74
2022/10/07 10:33:24;;;;;;;0.00;0.00;;;28.10;60.90;;;;;;4979672;28;20427;-74
2022/10/07 10:36:19;;;;;;;0.20;0.20;;;28.10;60.40;;;;;;4979694;28;20118;-74
2022/10/07 10:39:24;;;;;;;0.13;0.10;;;28.10;60.40;;;;;;4962461;28;20082;-74
2022/10/07 10:42:21;;;;;;;0.00;0.00;;;28.10;60.40;;;;;;4962602;28;20047;-74
2022/10/07 10:45:23;;;;;;;0.52;0.35;;;28.30;62.40;;;;;;4962390;28;20297;-74
2022/10/07 10:48:28;;;;;;;0.10;0.00;;;27.70;60.80;;;;;;4979731;28;20476;-74
2022/10/07 10:51:09;;;;;;;0.20;0.20;;;27.60;63.10;;;;;;4979584;28;20030;-74
2022/10/07 10:53:56;;;;;;;0.10;0.10;;;27.70;62.80;;;;;;4979408;28;20019;-74
2022/10/07 10:57:11;;;;;;;0.05;0.03;;;27.90;62.70;;;;;;4962260;28;20403;-74
2022/10/07 11:00:12;;;;;;;0.00;0.00;;;28.00;63.00;;;;;;4978339;28;20042;-74
2022/10/07 11:03:24;;;;;;;0.28;0.22;;;27.90;64.70;;;;;;4962115;28;20059;-74
2022/10/07 11:05:53;;;;;;;0.10;0.10;;;27.80;65.00;;;;;;4979176;28;20454;-74
2022/10/07 11:09:14;;;;;;;2.58;0.98;;;27.90;61.50;;;;;;4962103;28;20420;-74
2022/10/07 11:11:50;;;;;;;0.00;0.00;;;27.80;63.60;;;;;;4962003;28;20039;-74
2022/10/07 11:15:02;;;;;;;0.00;0.00;;;27.60;61.30;;;;;;4979239;28;20102;-75
2022/10/07 11:17:34;;;;;;;1.98;0.90;;;27.70;62.00;;;;;;4962018;28;20449;-75
2022/10/07 11:20:24;;;;;;;0.20;0.20;;;27.40;62.90;;;;;;4979294;28;20031;-75
2022/10/07 11:24:04;;;;;;;0.25;0.20;;;27.50;64.70;;;;;;4961743;28;20086;-74
2022/10/07 11:26:43;;;;;;;0.00;0.00;;;27.50;65.00;;;;;;4866563;29;20308;-75
2022/10/07 11:29:42;;;;;;;0.20;0.20;;;27.20;62.70;;;;;;4881974;29;20036;-75
2022/10/07 11:32:23;;;;;;;0.00;0.00;;;27.00;62.60;;;;;;4881920;29;20070;-75
2022/10/07 11:38:32;;;;;;;0.20;0.20;;;26.90;66.30;;;;;;4882014;29;20437;-74
2022/10/07 11:41:54;;;;;;;0.00;0.00;;;26.70;64.10;;;;;;4881659;29;20128;-74
2022/10/07 11:44:52;;;;;;;0.00;0.00;;;26.70;65.90;;;;;;4826270;29;20049;-74
2022/10/07 11:48:10;;;;;;;0.00;0.00;;;26.70;64.70;;;;;;4829985;29;20636;-74
2022/10/07 11:51:42;;;;;;;3.30;0.77;;;26.70;64.10;;;;;;4878638;29;20045;-74
2022/10/07 11:57:42;;;;;;;0.30;0.30;;;26.20;67.40;;;;;;4878941;29;20051;-74
2022/10/07 12:00:28;;;;;;;0.05;0.05;;;26.10;64.90;;;;;;4900058;29;20036;-74
2022/10/07 12:03:24;;;;;;;0.45;0.38;;;25.90;67.10;;;;;;4900013;29;20482;-75
2022/10/07 12:06:28;;;;;;;0.00;0.00;;;25.80;65.50;;;;;;4844394;29;20379;-75
2022/10/07 12:08:54;;;;;;;0.47;0.30;;;25.70;65.80;;;;;;4838659;29;20054;-74
2022/10/07 12:11:32;;;;;;;0.00;0.00;;;25.50;71.20;;;;;;4844135;29;20491;-74
2022/10/07 12:14:40;;;;;;;0.20;0.10;;;25.50;68.40;;;;;;4844154;29;20040;-74
2022/10/07 12:17:28;;;;;;;0.17;0.10;;;25.50;69.40;;;;;;4848928;29;20072;-74
2022/10/07 12:24:09;;;;;;;0.13;0.10;;;24.90;71.20;;;;;;5074068;28;20048;-74
2022/10/07 12:26:34;;;;;;;0.75;0.50;;;24.90;67.90;;;;;;5036232;28;20052;-74
2022/10/07 12:30:01;;;;;;;0.00;0.00;;;24.80;71.00;;;;;;5052680;28;20060;-74
2022/10/07 12:33:21;;;;;;;0.13;0.13;;;24.70;70.70;;;;;;5035781;28;20040;-74
2022/10/07 12:40:05;;;;;;;0.00;0.00;;;24.40;73.10;;;;;;5053660;28;20035;-74
2022/10/07 12:42:53;;;;;;;0.00;0.00;;;24.30;71.90;;;;;;5052441;28;20409;-74
2022/10/07 12:45:30;;;;;;;0.32;0.30;;;24.30;71.90;;;;;;5053375;28;20017;-74
2022/10/07 12:48:15;;;;;;;0.40;0.32;;;24.20;70.60;;;;;;5053316;28;20017;-74
2022/10/07 12:51:01;;;;;;;1.75;0.75;;;24.10;74.00;;;;;;5053346;28;20401;-74
2022/10/07 12:53:42;;;;;;;0.52;0.38;;;23.80;73.50;;;;;;5053222;28;20127;-74
2022/10/07 12:56:15;;;;;;;0.00;0.00;;;23.80;69.90;;;;;;5053110;28;20153;-74
2022/10/07 13:02:21;;;;;;;1.60;0.50;;;23.80;70.10;;;;;;5053519;28;20075;-74
2022/10/07 13:05:24;;;;;;;0.28;0.25;;;23.80;75.00;;;;;;5053018;28;20319;-74
2022/10/07 13:08:43;;;;;;;0.00;0.00;;;23.80;73.50;;;;;;5053055;28;20024;-74
2022/10/07 13:11:55;;;;;;;0.00;0.00;;;23.70;72.90;;;;;;5052996;28;20079;-74
2022/10/07 13:14:51;;;;;;;0.10;0.10;;;23.70;74.70;;;;;;5052855;28;20017;-74
2022/10/07 13:17:46;;;;;;;0.60;0.30;;;23.70;74.80;;;;;;5051828;28;20108;-74
2022/10/07 13:20:58;;;;;;;0.08;0.08;;;23.60;75.10;;;;;;5052848;28;20329;-74
2022/10/07 13:23:33;;;;;;;1.15;0.17;;;23.50;76.60;;;;;;5051603;28;20398;-74
2022/10/07 13:26:01;;;;;;;;;;;23.50;75.10;;;;;;5053010;28;20063;-74
2022/10/07 13:28:54;;;;;;;0.00;0.00;;;23.40;75.30;;;;;;5052563;28;19908;-74
2022/10/07 13:31:32;;;;;;;0.00;0.00;;;23.40;76.00;;;;;;5040710;28;20028;-74
2022/10/07 13:34:16;;;;;;;1.17;0.47;;;23.40;76.20;;;;;;5038213;28;20108;-74
2022/10/07 13:36:42;;;;;;;0.00;0.00;;;23.40;77.80;;;;;;5039236;28;20398;-74
2022/10/07 13:39:22;;;;;;;0.10;0.10;;;23.40;73.00;;;;;;5038231;28;20080;-74
2022/10/07 13:41:58;;;;;;;0.00;0.00;;;23.30;72.60;;;;;;5039157;28;20370;-74
2022/10/07 13:44:49;;;;;;;0.20;0.20;;;23.20;74.50;;;;;;5039006;28;20044;-74
2022/10/07 13:47:20;;;;;;;0.73;0.40;;;23.10;75.50;;;;;;5039331;28;20100;-74
2022/10/07 13:50:26;;;;;;;0.00;0.00;;;22.90;72.00;;;;;;5038006;28;20032;-74
2022/10/07 13:53:01;;;;;;;0.00;0.00;;;22.80;74.30;;;;;;5038822;28;20417;-74
2022/10/07 13:55:34;;;;;;;0.07;0.07;;;22.80;72.90;;;;;;5037753;28;20021;-74
2022/10/07 13:58:13;;;;;;;0.00;0.00;;;22.80;74.40;;;;;;5037760;28;20256;-74
2022/10/07 14:00:51;;;;;;;0.55;0.38;;;22.80;76.00;;;;;;5038669;28;20037;-74
2022/10/07 14:03:25;;;;;;;0.13;0.10;;;22.80;75.10;;;;;;5038859;28;20382;-74
2022/10/07 14:09:57;;;;;;;0.70;0.10;;;22.70;74.80;;;;;;5038642;28;20027;-74
2022/10/07 14:12:55;;;;;;;0.22;0.20;;;22.70;75.70;;;;;;5016952;28;20030;-74
2022/10/07 14:15:33;;;;;;;0.35;0.20;;;22.60;72.90;;;;;;5016671;28;20080;-73
2022/10/07 14:18:10;;;;;;;10.68;0.90;;;22.50;74.30;;;;;;5013881;28;20067;-73
2022/10/07 14:21:00;;;;;;;0.55;0.30;;;22.50;73.80;;;;;;4981190;28;20046;-73
2022/10/07 14:23:36;;;;;;;0.63;0.47;;;22.40;74.60;;;;;;4997931;28;20065;-73
2022/10/07 14:26:05;;;;;;;0.63;0.30;;;22.40;75.00;;;;;;4998827;28;20303;-73
2022/10/07 14:28:46;;;;;;;0.63;0.20;;;22.40;73.70;;;;;;4998910;28;20018;-73
2022/10/07 14:37:20;;;;;;;1.52;0.50;;;22.30;74.90;;;;;;4999028;28;20077;-74
2022/10/07 14:39:58;;;;;;;0.45;0.35;;;22.30;73.40;;;;;;4997537;28;20105;-72
2022/10/07 14:42:35;;;;;;;2.55;0.38;;;22.20;74.90;;;;;;4996518;28;20034;-73
2022/10/07 14:48:22;;;;;;;0.38;0.20;;;22.20;75.70;;;;;;4998817;28;20157;-73
2022/10/07 14:50:58;;;;;;;0.35;0.30;;;22.10;75.30;;;;;;4997349;28;20053;-73
2022/10/07 14:53:34;;;;;;;2.53;1.05;;;22.00;74.00;;;;;;4998439;28;20022;-75
2022/10/07 14:56:00;;;;;;;0.20;0.10;;;21.90;75.80;;;;;;4998305;28;20046;-73
2022/10/07 14:58:35;;;;;;;0.70;0.30;;;21.90;76.40;;;;;;4998247;28;20116;-75
2022/10/07 15:01:10;;;;;;;4.93;1.23;;;21.90;76.00;;;;;;4997148;28;20030;-75
2022/10/07 15:03:49;;;;;;;0.22;0.17;;;21.80;76.50;;;;;;4997251;28;20078;-75
2022/10/07 15:06:18;;;;;;;0.40;0.30;;;21.80;75.20;;;;;;4998272;28;20022;-75
2022/10/07 15:08:53;;;;;;;0.50;0.50;;;21.80;75.20;;;;;;4997365;28;20034;-74
2022/10/07 15:11:28;;;;;;;0.40;0.20;;;21.80;75.10;;;;;;4998222;28;20029;-75
2022/10/07 15:14:04;;;;;;;0.30;0.20;;;21.80;75.60;;;;;;4998040;28;20034;-75
2022/10/07 15:16:30;;;;;;;0.10;0.10;;;21.80;76.20;;;;;;4998028;28;20406;-75
2022/10/07 15:19:21;;;;;;;1.13;0.52;;;21.70;77.00;;;;;;4992693;28;20049;-75
2022/10/07 15:21:57;;;;;;;0.68;0.55;;;21.60;77.20;;;;;;5037211;28;20071;-75
2022/10/07 15:27:44;;;;;;;3.10;0.68;;;21.40;75.50;;;;;;5037546;28;20071;-75
2022/10/07 15:30:19;;;;;;;0.00;0.00;;;21.40;76.20;;;;;;5037066;28;20021;-75
2022/10/07 15:32:57;;;;;;;0.20;0.17;;;21.40;76.50;;;;;;5037105;28;20101;-74
2022/10/07 15:35:34;;;;;;;0.30;0.20;;;21.40;76.90;;;;;;5019425;28;20402;-75
2022/10/07 15:38:09;;;;;;;0.50;0.32;;;21.30;77.40;;;;;;5035951;28;20021;-75
2022/10/07 15:41:33;;;;;;;0.45;0.20;;;21.20;77.50;;;;;;5037023;28;20021;-75
2022/10/07 15:44:14;;;;;;;0.08;0.08;;;21.20;78.60;;;;;;5036589;28;20033;-75
2022/10/07 15:46:41;;;;;;;0.95;0.57;;;21.10;76.50;;;;;;5037231;28;20040;-74
2022/10/07 15:49:16;;;;;;;0.30;0.20;;;21.10;78.10;;;;;;5036769;28;20143;-75
2022/10/07 15:51:52;;;;;;;0.85;0.45;;;21.00;81.00;;;;;;5035733;28;20309;-75
2022/10/07 15:54:27;;;;;;;;;;;20.90;81.20;;;;;;5036898;28;20044;-75
2022/10/07 15:56:52;;;;;;;0.30;0.20;;;20.70;83.10;;;;;;5036751;28;19909;-75
2022/10/07 15:59:36;;;;;;;0.40;0.40;;;20.50;83.80;;;;;;5036685;28;20041;-74
2022/10/07 16:02:16;;;;;;;0.28;0.17;;;20.30;85.00;;;;;;5035579;28;20271;-75
2022/10/07 16:04:51;;;;;;;0.30;0.20;;;20.00;85.50;;;;;;5035579;28;20014;-74
2022/10/07 16:07:17;;;;;;;0.77;0.30;;;19.80;86.20;;;;;;5036695;28;20032;-75
2022/10/07 16:09:55;;;;;;;0.20;0.20;;;19.60;87.00;;;;;;5036605;28;20017;-74
2022/10/07 16:12:30;;;;;;;0.20;0.10;;;19.30;88.10;;;;;;5036578;28;20067;-75
2022/10/07 16:18:35;;;;;;;0.13;0.10;;;19.00;88.70;;;;;;5036694;28;20047;-75
2022/10/07 16:21:16;;;;;;;0.73;0.55;;;18.80;88.30;;;;;;5036464;28;20029;-74
2022/10/07 16:23:54;;;;;;;1.00;0.30;;;18.70;88.90;;;;;;5036291;28;20044;-74
2022/10/07 16:26:24;;;;;;;0.38;0.25;;;18.60;89.50;;;;;;5035249;28;20398;-75
2022/10/07 16:31:55;;;;;;;0.43;0.10;;;18.30;90.20;;;;;;5036560;28;20087;-75
2022/10/07 16:34:29;;;;;;;0.20;0.15;;;18.20;90.20;;;;;;5036266;28;20049;-75
2022/10/07 16:36:56;;;;;;;0.20;0.20;;;18.00;90.70;;;;;;5035173;28;20064;-75
2022/10/07 16:39:37;;;;;;;0.20;0.10;;;17.90;90.70;;;;;;5036199;28;20267;-74
2022/10/07 16:42:13;;;;;;;0.30;0.30;;;17.80;91.00;;;;;;5035183;28;20022;-75
2022/10/07 16:44:49;;;;;;;9.73;0.50;;;17.80;91.40;;;;;;5035098;28;20053;-74
2022/10/07 16:47:15;;;;;;;1.67;1.13;;;17.70;91.60;;;;;;5036213;28;20336;-75
2022/10/07 16:49:59;;;;;;;0.68;0.68;;;17.70;91.60;;;;;;5036097;28;20026;-75
2022/10/07 16:52:34;;;;;;;0.82;0.50;;;17.60;91.60;;;;;;5036141;28;20410;-74
2022/10/07 16:58:23;;;;;;;0.60;0.22;;;17.50;92.30;;;;;;5036482;28;20301;-74
2022/10/07 17:01:14;;;;;;;0.30;0.30;;;17.40;92.10;;;;;;5036066;28;20087;-74
2022/10/07 17:03:50;;;;;;;0.25;0.25;;;17.40;92.30;;;;;;5035112;28;20029;-74
2022/10/07 17:06:19;;;;;;;0.13;0.10;;;17.30;92.60;;;;;;5038424;28;20036;-74
2022/10/07 17:08:55;;;;;;;0.88;0.70;;;17.30;92.70;;;;;;5038644;28;20395;-74
2022/10/07 17:11:32;;;;;;;0.30;0.30;;;17.30;92.90;;;;;;5039635;28;20313;-74
2022/10/07 17:14:10;;;;;;;0.45;0.35;;;17.30;92.90;;;;;;5039705;28;20033;-74
2022/10/07 17:16:38;;;;;;;0.32;0.30;;;17.30;92.70;;;;;;5039423;28;20029;-74
2022/10/07 17:19:14;;;;;;;1.75;0.80;;;17.20;92.90;;;;;;5036741;28;20058;-74
2022/10/07 17:21:51;;;;;;;0.30;0.30;;;17.20;93.00;;;;;;5039782;28;20314;-73
2022/10/07 17:24:26;;;;;;;0.30;0.20;;;17.10;93.00;;;;;;5039454;28;20133;-74
2022/10/07 17:26:52;;;;;;;0.30;0.20;;;17.10;93.00;;;;;;5039380;28;20021;-74
2022/10/07 17:30:04;;;;;;;0.98;0.22;;;17.10;92.90;;;;;;5038334;28;20029;-75
2022/10/07 17:32:40;;;;;;;2.83;0.45;;;17.10;93.10;;;;;;5039195;28;20132;-74
2022/10/07 17:38:32;;;;;;;1.77;0.50;;;17.00;93.10;;;;;;5039402;28;20036;-75
2022/10/07 17:41:19;;;;;;;0.20;0.20;;;16.90;93.00;;;;;;5039243;28;20040;-74
2022/10/07 17:43:56;;;;;;;1.85;0.85;;;16.90;93.10;;;;;;5039010;28;20088;-75
2022/10/07 17:49:53;;;;;;;0.40;0.30;;;16.80;93.50;;;;;;5039141;28;20068;-74
2022/10/07 17:52:31;;;;;;;0.60;0.40;;;16.80;93.50;;;;;;5038925;28;20028;-75
2022/10/07 17:55:06;;;;;;;0.40;0.22;;;16.80;93.60;;;;;;5037898;28;20032;-74